sensor_id;sensor_type;location;lat;lon;timestamp;pressure;altitude;pressure_sealevel;temperature;humidity
79481;BME280;68944;48.262;14.208;2023-04-03T00:00:12;99029.16;;;12.27;42.73
79481;BME280;68944;48.262;14.208;2023-04-03T00:02:37;99024.97;;;12.13;43.05
79481;BME280;68944;48.262;14.208;2023-04-03T00:05:03;99031.34;;;12.06;43.21
79481;BME280;68944;48.262;14.208;2023-04-03T00:07:29;99022.84;;;12.28;42.82
79481;BME280;68944;48.262;14.208;2023-04-03T00:09:55;99023.63;;;12.53;43.52
79481;BME280;68944;48.262;14.208;2023-04-03T00:12:21;99021.94;;;12.10;43.87
79481;BME280;68944;48.262;14.208;2023-04-03T00:14:46;99025.59;;;12.15;44.06
79481;BME280;68944;48.262;14.208;2023-04-03T00:17:12;99015.38;;;11.50;44.03
79481;BME280;68944;48.262;14.208;2023-04-03T00:19:37;99019.09;;;11.80;43.27
79481;BME280;68944;48.262;14.208;2023-04-03T00:22:03;99027.25;;;12.10;42.32
79481;BME280;68944;48.262;14.208;2023-04-03T00:24:28;99025.03;;;12.07;41.49
79481;BME280;68944;48.262;14.208;2023-04-03T00:26:54;99025.66;;;12.33;41.63
79481;BME280;68944;48.262;14.208;2023-04-03T00:29:20;99026.34;;;12.22;42.54
79481;BME280;68944;48.262;14.208;2023-04-03T00:31:45;99038.66;;;11.22;44.82
79481;BME280;68944;48.262;14.208;2023-04-03T00:34:11;99029.78;;;11.92;43.29
79481;BME280;68944;48.262;14.208;2023-04-03T00:36:36;99024.69;;;11.59;43.90
79481;BME280;68944;48.262;14.208;2023-04-03T00:39:02;99021.69;;;11.87;43.61
79481;BME280;68944;48.262;14.208;2023-04-03T00:41:28;99027.88;;;12.05;42.57
79481;BME280;68944;48.262;14.208;2023-04-03T00:43:54;99020.41;;;12.27;43.18
79481;BME280;68944;48.262;14.208;2023-04-03T00:46:19;99026.38;;;12.47;42.78
79481;BME280;68944;48.262;14.208;2023-04-03T00:48:47;99025.16;;;11.43;44.62
79481;BME280;68944;48.262;14.208;2023-04-03T00:51:20;99024.31;;;11.93;43.40
79481;BME280;68944;48.262;14.208;2023-04-03T00:53:54;99029.34;;;11.07;45.93
79481;BME280;68944;48.262;14.208;2023-04-03T00:56:23;99019.06;;;11.36;45.24
79481;BME280;68944;48.262;14.208;2023-04-03T00:58:51;99032.41;;;11.61;44.06
79481;BME280;68944;48.262;14.208;2023-04-03T01:01:22;99030.53;;;11.68;44.27
79481;BME280;68944;48.262;14.208;2023-04-03T01:03:48;99032.97;;;11.76;43.40
79481;BME280;68944;48.262;14.208;2023-04-03T01:06:16;99028.22;;;12.15;44.31
79481;BME280;68944;48.262;14.208;2023-04-03T01:08:43;99029.22;;;11.46;45.34
79481;BME280;68944;48.262;14.208;2023-04-03T01:11:09;99039.31;;;11.62;44.85
79481;BME280;68944;48.262;14.208;2023-04-03T01:13:35;99034.00;;;12.06;44.74
79481;BME280;68944;48.262;14.208;2023-04-03T01:16:04;99041.78;;;11.63;46.22
79481;BME280;68944;48.262;14.208;2023-04-03T01:18:31;99038.97;;;11.52;46.03
79481;BME280;68944;48.262;14.208;2023-04-03T01:26:48;99044.25;;;10.56;47.61
79481;BME280;68944;48.262;14.208;2023-04-03T01:29:14;99055.00;;;10.74;47.31
79481;BME280;68944;48.262;14.208;2023-04-03T01:34:11;99051.16;;;11.46;46.39
79481;BME280;68944;48.262;14.208;2023-04-03T01:36:37;99052.94;;;12.03;45.86
79481;BME280;68944;48.262;14.208;2023-04-03T01:39:03;99053.13;;;12.01;45.73
79481;BME280;68944;48.262;14.208;2023-04-03T01:41:28;99055.31;;;12.11;45.86
79481;BME280;68944;48.262;14.208;2023-04-03T01:44:01;99056.72;;;11.32;46.19
79481;BME280;68944;48.262;14.208;2023-04-03T01:46:26;99060.81;;;11.28;46.45
79481;BME280;68944;48.262;14.208;2023-04-03T01:48:52;99061.78;;;11.40;46.31
79481;BME280;68944;48.262;14.208;2023-04-03T01:51:17;99051.53;;;12.00;45.05
79481;BME280;68944;48.262;14.208;2023-04-03T01:53:43;99057.38;;;11.78;45.13
79481;BME280;68944;48.262;14.208;2023-04-03T01:56:09;99052.25;;;11.83;45.35
79481;BME280;68944;48.262;14.208;2023-04-03T01:58:35;99059.06;;;10.83;46.83
79481;BME280;68944;48.262;14.208;2023-04-03T02:01:00;99052.72;;;10.97;44.92
79481;BME280;68944;48.262;14.208;2023-04-03T02:03:27;99054.41;;;10.59;45.32
79481;BME280;68944;48.262;14.208;2023-04-03T02:05:53;99055.03;;;10.41;44.27
79481;BME280;68944;48.262;14.208;2023-04-03T02:08:18;99056.03;;;10.73;42.71
79481;BME280;68944;48.262;14.208;2023-04-03T02:10:47;99055.31;;;11.23;42.75
79481;BME280;68944;48.262;14.208;2023-04-03T02:13:13;99047.66;;;11.65;42.90
79481;BME280;68944;48.262;14.208;2023-04-03T02:15:39;99052.38;;;11.44;43.30
79481;BME280;68944;48.262;14.208;2023-04-03T02:18:05;99044.63;;;11.62;42.33
79481;BME280;68944;48.262;14.208;2023-04-03T02:20:31;99048.66;;;11.71;42.25
79481;BME280;68944;48.262;14.208;2023-04-03T02:22:56;99051.59;;;11.87;41.46
79481;BME280;68944;48.262;14.208;2023-04-03T02:25:24;99048.41;;;12.10;41.02
79481;BME280;68944;48.262;14.208;2023-04-03T02:27:50;99049.78;;;11.37;42.77
79481;BME280;68944;48.262;14.208;2023-04-03T02:30:15;99051.84;;;11.29;43.06
79481;BME280;68944;48.262;14.208;2023-04-03T02:32:42;99054.78;;;10.88;43.60
79481;BME280;68944;48.262;14.208;2023-04-03T02:35:09;99061.81;;;9.77;47.17
79481;BME280;68944;48.262;14.208;2023-04-03T02:37:35;99061.16;;;9.69;47.61
79481;BME280;68944;48.262;14.208;2023-04-03T02:40:01;99064.41;;;9.71;48.52
79481;BME280;68944;48.262;14.208;2023-04-03T02:42:27;99055.03;;;10.22;48.33
79481;BME280;68944;48.262;14.208;2023-04-03T02:44:53;99047.53;;;10.58;46.54
79481;BME280;68944;48.262;14.208;2023-04-03T02:47:19;99047.31;;;10.40;45.04
79481;BME280;68944;48.262;14.208;2023-04-03T02:49:44;99046.47;;;10.98;44.02
79481;BME280;68944;48.262;14.208;2023-04-03T02:52:14;99051.22;;;11.40;42.92
79481;BME280;68944;48.262;14.208;2023-04-03T02:54:40;99058.75;;;11.23;42.32
79481;BME280;68944;48.262;14.208;2023-04-03T02:57:08;99057.88;;;10.72;43.86
79481;BME280;68944;48.262;14.208;2023-04-03T02:59:37;99053.38;;;10.73;44.22
79481;BME280;68944;48.262;14.208;2023-04-03T03:02:09;99056.78;;;11.06;43.86
79481;BME280;68944;48.262;14.208;2023-04-03T03:04:35;99063.22;;;11.36;43.48
79481;BME280;68944;48.262;14.208;2023-04-03T03:07:01;99060.22;;;11.13;45.58
79481;BME280;68944;48.262;14.208;2023-04-03T03:09:28;99062.91;;;10.93;46.87
79481;BME280;68944;48.262;14.208;2023-04-03T03:11:55;99060.69;;;10.84;46.66
79481;BME280;68944;48.262;14.208;2023-04-03T03:14:21;99062.34;;;10.65;46.88
79481;BME280;68944;48.262;14.208;2023-04-03T03:16:46;99061.31;;;10.14;47.15
79481;BME280;68944;48.262;14.208;2023-04-03T03:19:12;99050.94;;;10.78;45.46
79481;BME280;68944;48.262;14.208;2023-04-03T03:21:38;99056.03;;;10.40;46.12
79481;BME280;68944;48.262;14.208;2023-04-03T03:24:04;99053.59;;;10.65;43.54
79481;BME280;68944;48.262;14.208;2023-04-03T03:26:29;99059.31;;;10.42;44.97
79481;BME280;68944;48.262;14.208;2023-04-03T03:28:55;99054.84;;;10.69;44.42
79481;BME280;68944;48.262;14.208;2023-04-03T03:31:21;99051.56;;;10.73;44.49
79481;BME280;68944;48.262;14.208;2023-04-03T03:33:46;99051.94;;;10.90;44.19
79481;BME280;68944;48.262;14.208;2023-04-03T03:36:12;99055.59;;;10.82;44.04
79481;BME280;68944;48.262;14.208;2023-04-03T03:38:38;99053.56;;;10.91;43.10
79481;BME280;68944;48.262;14.208;2023-04-03T03:41:03;99057.09;;;11.35;42.69
79481;BME280;68944;48.262;14.208;2023-04-03T03:43:31;99055.91;;;11.31;43.00
79481;BME280;68944;48.262;14.208;2023-04-03T03:45:57;99052.34;;;11.57;42.27
79481;BME280;68944;48.262;14.208;2023-04-03T03:48:24;99054.50;;;11.79;41.22
79481;BME280;68944;48.262;14.208;2023-04-03T03:50:49;99051.31;;;11.71;42.15
79481;BME280;68944;48.262;14.208;2023-04-03T03:53:16;99060.66;;;10.97;42.75
79481;BME280;68944;48.262;14.208;2023-04-03T03:55:42;99058.81;;;11.10;42.38
79481;BME280;68944;48.262;14.208;2023-04-03T03:58:08;99062.53;;;10.77;42.67
79481;BME280;68944;48.262;14.208;2023-04-03T04:00:34;99063.97;;;10.21;45.12
79481;BME280;68944;48.262;14.208;2023-04-03T04:03:00;99064.56;;;10.36;43.78
79481;BME280;68944;48.262;14.208;2023-04-03T04:05:28;99055.44;;;10.51;44.55
79481;BME280;68944;48.262;14.208;2023-04-03T04:07:54;99052.59;;;10.66;44.11
79481;BME280;68944;48.262;14.208;2023-04-03T04:10:19;99056.38;;;11.09;43.15
79481;BME280;68944;48.262;14.208;2023-04-03T04:12:46;99054.94;;;11.06;43.71
79481;BME280;68944;48.262;14.208;2023-04-03T04:15:11;99058.25;;;10.95;43.63
79481;BME280;68944;48.262;14.208;2023-04-03T04:17:38;99061.72;;;10.50;45.12
79481;BME280;68944;48.262;14.208;2023-04-03T04:20:06;99057.03;;;10.52;45.31
79481;BME280;68944;48.262;14.208;2023-04-03T04:22:32;99066.25;;;9.70;43.45
79481;BME280;68944;48.262;14.208;2023-04-03T04:24:58;99057.44;;;10.56;42.51
79481;BME280;68944;48.262;14.208;2023-04-03T04:27:24;99054.22;;;10.47;41.42
79481;BME280;68944;48.262;14.208;2023-04-03T04:29:49;99056.84;;;10.73;40.85
79481;BME280;68944;48.262;14.208;2023-04-03T04:32:16;99063.16;;;10.72;42.68
79481;BME280;68944;48.262;14.208;2023-04-03T04:34:41;99057.84;;;10.85;42.30
79481;BME280;68944;48.262;14.208;2023-04-03T04:37:07;99076.53;;;10.84;42.94
79481;BME280;68944;48.262;14.208;2023-04-03T04:39:33;99064.09;;;11.17;42.19
79481;BME280;68944;48.262;14.208;2023-04-03T04:41:59;99063.84;;;11.31;41.60
79481;BME280;68944;48.262;14.208;2023-04-03T04:44:27;99063.53;;;11.52;41.04
79481;BME280;68944;48.262;14.208;2023-04-03T04:46:53;99068.44;;;11.42;41.84
79481;BME280;68944;48.262;14.208;2023-04-03T04:49:19;99068.44;;;11.49;41.46
79481;BME280;68944;48.262;14.208;2023-04-03T04:51:45;99069.84;;;10.68;42.53
79481;BME280;68944;48.262;14.208;2023-04-03T04:54:11;99076.22;;;11.31;41.78
79481;BME280;68944;48.262;14.208;2023-04-03T04:56:38;99082.19;;;11.00;42.78
79481;BME280;68944;48.262;14.208;2023-04-03T04:59:03;99071.81;;;11.12;42.17
79481;BME280;68944;48.262;14.208;2023-04-03T05:01:29;99078.94;;;11.05;42.62
79481;BME280;68944;48.262;14.208;2023-04-03T05:04:06;99084.63;;;11.02;43.10
79481;BME280;68944;48.262;14.208;2023-04-03T05:06:32;99087.72;;;10.60;43.55
79481;BME280;68944;48.262;14.208;2023-04-03T05:09:01;99086.91;;;10.66;43.12
79481;BME280;68944;48.262;14.208;2023-04-03T05:11:28;99078.56;;;10.75;43.16
79481;BME280;68944;48.262;14.208;2023-04-03T05:13:54;99091.56;;;10.77;43.29
79481;BME280;68944;48.262;14.208;2023-04-03T05:16:22;99076.31;;;10.79;42.92
79481;BME280;68944;48.262;14.208;2023-04-03T05:18:47;99083.84;;;10.75;42.75
79481;BME280;68944;48.262;14.208;2023-04-03T05:21:17;99090.97;;;10.49;43.77
79481;BME280;68944;48.262;14.208;2023-04-03T05:23:50;99081.00;;;10.44;43.34
79481;BME280;68944;48.262;14.208;2023-04-03T05:26:16;99085.69;;;10.36;43.46
79481;BME280;68944;48.262;14.208;2023-04-03T05:28:43;99086.28;;;10.18;44.12
79481;BME280;68944;48.262;14.208;2023-04-03T05:31:10;99093.63;;;10.42;43.42
79481;BME280;68944;48.262;14.208;2023-04-03T05:33:35;99088.72;;;10.39;43.54
79481;BME280;68944;48.262;14.208;2023-04-03T05:36:04;99088.53;;;10.47;43.08
79481;BME280;68944;48.262;14.208;2023-04-03T05:38:32;99088.94;;;10.31;43.14
79481;BME280;68944;48.262;14.208;2023-04-03T05:40:58;99092.41;;;10.45;42.40
79481;BME280;68944;48.262;14.208;2023-04-03T05:43:24;99099.50;;;10.57;41.98
79481;BME280;68944;48.262;14.208;2023-04-03T05:45:51;99090.75;;;10.63;41.92
79481;BME280;68944;48.262;14.208;2023-04-03T05:48:17;99091.56;;;10.70;41.42
79481;BME280;68944;48.262;14.208;2023-04-03T05:50:44;99090.53;;;10.91;41.85
79481;BME280;68944;48.262;14.208;2023-04-03T05:53:27;99087.13;;;11.54;41.36
79481;BME280;68944;48.262;14.208;2023-04-03T05:55:54;99095.28;;;11.52;42.23
79481;BME280;68944;48.262;14.208;2023-04-03T05:58:21;99106.81;;;10.88;42.88
79481;BME280;68944;48.262;14.208;2023-04-03T06:00:50;99104.38;;;10.86;41.31
79481;BME280;68944;48.262;14.208;2023-04-03T06:03:15;99109.44;;;11.07;41.56
79481;BME280;68944;48.262;14.208;2023-04-03T06:05:42;99108.25;;;10.77;42.04
79481;BME280;68944;48.262;14.208;2023-04-03T06:08:09;99112.91;;;11.01;41.74
79481;BME280;68944;48.262;14.208;2023-04-03T06:10:35;99115.50;;;11.08;42.21
79481;BME280;68944;48.262;14.208;2023-04-03T06:13:01;99114.69;;;11.14;41.99
79481;BME280;68944;48.262;14.208;2023-04-03T06:15:27;99117.28;;;11.27;42.40
79481;BME280;68944;48.262;14.208;2023-04-03T06:17:53;99111.25;;;11.13;41.43
79481;BME280;68944;48.262;14.208;2023-04-03T06:20:19;99117.78;;;10.98;41.68
79481;BME280;68944;48.262;14.208;2023-04-03T06:22:45;99124.25;;;11.08;41.76
79481;BME280;68944;48.262;14.208;2023-04-03T06:25:11;99128.22;;;11.56;41.43
79481;BME280;68944;48.262;14.208;2023-04-03T06:27:37;99126.97;;;11.78;41.21
79481;BME280;68944;48.262;14.208;2023-04-03T06:30:03;99126.44;;;11.31;41.39
79481;BME280;68944;48.262;14.208;2023-04-03T06:32:28;99129.13;;;11.11;42.37
79481;BME280;68944;48.262;14.208;2023-04-03T06:34:54;99125.47;;;11.06;42.18
79481;BME280;68944;48.262;14.208;2023-04-03T06:37:22;99136.84;;;11.19;41.40
79481;BME280;68944;48.262;14.208;2023-04-03T06:39:48;99136.78;;;11.58;40.87
79481;BME280;68944;48.262;14.208;2023-04-03T06:42:14;99134.78;;;11.41;40.41
79481;BME280;68944;48.262;14.208;2023-04-03T06:44:50;99146.78;;;11.24;41.42
79481;BME280;68944;48.262;14.208;2023-04-03T06:47:16;99149.59;;;11.42;40.07
79481;BME280;68944;48.262;14.208;2023-04-03T06:49:42;99139.59;;;11.63;40.12
79481;BME280;68944;48.262;14.208;2023-04-03T06:52:08;99150.56;;;11.73;40.37
79481;BME280;68944;48.262;14.208;2023-04-03T06:54:33;99148.25;;;11.96;40.51
79481;BME280;68944;48.262;14.208;2023-04-03T06:56:59;99150.25;;;11.94;40.73
79481;BME280;68944;48.262;14.208;2023-04-03T06:59:25;99149.19;;;12.08;41.32
79481;BME280;68944;48.262;14.208;2023-04-03T07:01:51;99151.66;;;12.03;40.01
79481;BME280;68944;48.262;14.208;2023-04-03T07:04:17;99153.66;;;12.45;40.26
79481;BME280;68944;48.262;14.208;2023-04-03T07:06:43;99151.81;;;12.46;39.35
79481;BME280;68944;48.262;14.208;2023-04-03T07:09:09;99151.50;;;12.91;38.54
79481;BME280;68944;48.262;14.208;2023-04-03T07:11:35;99148.97;;;13.03;38.41
79481;BME280;68944;48.262;14.208;2023-04-03T07:14:02;99156.41;;;12.88;39.89
79481;BME280;68944;48.262;14.208;2023-04-03T07:16:28;99163.19;;;13.08;39.47
79481;BME280;68944;48.262;14.208;2023-04-03T07:18:56;99169.78;;;13.24;39.20
79481;BME280;68944;48.262;14.208;2023-04-03T07:21:22;99165.84;;;13.51;38.90
79481;BME280;68944;48.262;14.208;2023-04-03T07:23:48;99165.69;;;13.46;38.53
79481;BME280;68944;48.262;14.208;2023-04-03T07:26:13;99174.69;;;13.45;39.26
79481;BME280;68944;48.262;14.208;2023-04-03T07:28:39;99174.09;;;12.69;40.87
79481;BME280;68944;48.262;14.208;2023-04-03T07:31:10;99176.44;;;13.08;39.82
79481;BME280;68944;48.262;14.208;2023-04-03T07:33:37;99179.16;;;13.02;40.25
79481;BME280;68944;48.262;14.208;2023-04-03T07:36:04;99179.97;;;13.02;40.39
79481;BME280;68944;48.262;14.208;2023-04-03T07:38:30;99186.19;;;12.21;41.26
79481;BME280;68944;48.262;14.208;2023-04-03T07:40:55;99195.59;;;12.48;40.95
79481;BME280;68944;48.262;14.208;2023-04-03T07:43:22;99197.97;;;11.62;44.96
79481;BME280;68944;48.262;14.208;2023-04-03T07:45:49;99213.88;;;11.23;45.99
79481;BME280;68944;48.262;14.208;2023-04-03T07:48:20;99196.56;;;11.53;42.79
79481;BME280;68944;48.262;14.208;2023-04-03T07:50:46;99203.53;;;10.95;42.58
79481;BME280;68944;48.262;14.208;2023-04-03T07:53:12;99210.22;;;11.17;42.45
79481;BME280;68944;48.262;14.208;2023-04-03T07:55:37;99210.22;;;10.78;43.41
79481;BME280;68944;48.262;14.208;2023-04-03T07:58:12;99204.28;;;10.63;43.54
79481;BME280;68944;48.262;14.208;2023-04-03T08:00:38;99211.03;;;10.98;43.40
79481;BME280;68944;48.262;14.208;2023-04-03T08:03:04;99208.59;;;11.03;43.87
79481;BME280;68944;48.262;14.208;2023-04-03T08:05:31;99207.56;;;11.17;42.18
79481;BME280;68944;48.262;14.208;2023-04-03T08:07:56;99213.09;;;11.16;42.77
79481;BME280;68944;48.262;14.208;2023-04-03T08:10:22;99207.19;;;11.20;43.23
79481;BME280;68944;48.262;14.208;2023-04-03T08:12:48;99197.38;;;11.66;42.36
79481;BME280;68944;48.262;14.208;2023-04-03T08:15:14;99202.69;;;11.66;41.79
79481;BME280;68944;48.262;14.208;2023-04-03T08:17:40;99199.38;;;11.77;42.02
79481;BME280;68944;48.262;14.208;2023-04-03T08:20:06;99197.84;;;12.07;41.04
79481;BME280;68944;48.262;14.208;2023-04-03T08:22:32;99205.28;;;12.30;41.03
79481;BME280;68944;48.262;14.208;2023-04-03T08:24:58;99200.66;;;12.19;40.42
79481;BME280;68944;48.262;14.208;2023-04-03T08:27:23;99207.22;;;12.47;40.17
79481;BME280;68944;48.262;14.208;2023-04-03T08:29:49;99206.09;;;12.61;39.78
79481;BME280;68944;48.262;14.208;2023-04-03T08:32:14;99201.72;;;12.80;40.18
79481;BME280;68944;48.262;14.208;2023-04-03T08:34:41;99206.41;;;13.09;39.18
79481;BME280;68944;48.262;14.208;2023-04-03T08:37:06;99205.56;;;12.09;38.89
79481;BME280;68944;48.262;14.208;2023-04-03T08:39:32;99209.56;;;12.24;37.69
79481;BME280;68944;48.262;14.208;2023-04-03T08:41:58;99209.00;;;12.16;37.63
79481;BME280;68944;48.262;14.208;2023-04-03T08:52:14;99215.72;;;12.87;34.97
79481;BME280;68944;48.262;14.208;2023-04-03T08:54:53;99208.81;;;12.55;34.69
79481;BME280;68944;48.262;14.208;2023-04-03T08:57:39;99210.63;;;12.54;35.36
79481;BME280;68944;48.262;14.208;2023-04-03T09:00:18;99199.78;;;12.93;34.53
79481;BME280;68944;48.262;14.208;2023-04-03T09:02:46;99196.78;;;13.14;34.21
79481;BME280;68944;48.262;14.208;2023-04-03T09:05:16;99200.78;;;12.99;34.44
79481;BME280;68944;48.262;14.208;2023-04-03T09:07:45;99200.00;;;13.41;34.32
79481;BME280;68944;48.262;14.208;2023-04-03T09:10:15;99195.84;;;13.51;34.10
79481;BME280;68944;48.262;14.208;2023-04-03T09:12:43;99201.25;;;13.81;33.36
79481;BME280;68944;48.262;14.208;2023-04-03T09:15:19;99202.16;;;13.50;33.71
79481;BME280;68944;48.262;14.208;2023-04-03T09:22:51;99209.41;;;14.15;32.41
79481;BME280;68944;48.262;14.208;2023-04-03T09:25:36;99213.56;;;14.59;32.33
79481;BME280;68944;48.262;14.208;2023-04-03T09:28:03;99206.06;;;14.56;33.17
79481;BME280;68944;48.262;14.208;2023-04-03T09:30:29;99216.44;;;14.57;31.50
79481;BME280;68944;48.262;14.208;2023-04-03T09:32:56;99210.19;;;15.34;31.37
79481;BME280;68944;48.262;14.208;2023-04-03T09:35:25;99212.13;;;15.27;30.48
79481;BME280;68944;48.262;14.208;2023-04-03T09:42:51;99198.81;;;15.84;29.91
79481;BME280;68944;48.262;14.208;2023-04-03T09:48:04;99197.78;;;15.85;29.77
79481;BME280;68944;48.262;14.208;2023-04-03T09:50:30;99200.34;;;16.20;31.04
79481;BME280;68944;48.262;14.208;2023-04-03T09:52:56;99200.53;;;16.41;29.84
79481;BME280;68944;48.262;14.208;2023-04-03T09:55:26;99190.13;;;16.40;29.80
79481;BME280;68944;48.262;14.208;2023-04-03T09:58:01;99195.19;;;16.13;29.42
79481;BME280;68944;48.262;14.208;2023-04-03T10:00:37;99192.00;;;16.28;28.72
79481;BME280;68944;48.262;14.208;2023-04-03T10:03:04;99195.25;;;16.18;29.30
79481;BME280;68944;48.262;14.208;2023-04-03T10:05:39;99188.97;;;16.64;29.02
79481;BME280;68944;48.262;14.208;2023-04-03T10:08:21;99189.41;;;16.33;29.17
79481;BME280;68944;48.262;14.208;2023-04-03T10:11:12;99181.41;;;16.89;30.29
79481;BME280;68944;48.262;14.208;2023-04-03T10:14:16;99183.59;;;17.96;27.85
79481;BME280;68944;48.262;14.208;2023-04-03T10:19:43;99179.03;;;18.92;26.79
79481;BME280;68944;48.262;14.208;2023-04-03T10:25:15;99178.91;;;18.51;26.07
79481;BME280;68944;48.262;14.208;2023-04-03T10:38:49;99174.38;;;16.99;27.69
79481;BME280;68944;48.262;14.208;2023-04-03T10:52:24;99176.56;;;16.41;28.53
79481;BME280;68944;48.262;14.208;2023-04-03T10:55:14;99176.72;;;15.61;30.38
79481;BME280;68944;48.262;14.208;2023-04-03T10:57:48;99181.31;;;15.88;29.59
79481;BME280;68944;48.262;14.208;2023-04-03T11:00:20;99185.84;;;15.19;29.90
79481;BME280;68944;48.262;14.208;2023-04-03T11:02:56;99183.78;;;15.67;28.69
79481;BME280;68944;48.262;14.208;2023-04-03T11:05:45;99178.94;;;15.52;28.06
79481;BME280;68944;48.262;14.208;2023-04-03T11:08:37;99174.53;;;16.09;27.47
79481;BME280;68944;48.262;14.208;2023-04-03T11:11:17;99176.22;;;15.98;28.46
79481;BME280;68944;48.262;14.208;2023-04-03T11:14:01;99173.84;;;15.28;30.29
79481;BME280;68944;48.262;14.208;2023-04-03T11:16:30;99173.41;;;15.65;29.22
79481;BME280;68944;48.262;14.208;2023-04-03T11:19:02;99179.00;;;15.11;30.23
79481;BME280;68944;48.262;14.208;2023-04-03T11:21:40;99174.34;;;14.84;30.65
79481;BME280;68944;48.262;14.208;2023-04-03T11:24:28;99183.88;;;14.32;31.52
79481;BME280;68944;48.262;14.208;2023-04-03T11:26:56;99175.34;;;14.30;30.99
79481;BME280;68944;48.262;14.208;2023-04-03T11:29:25;99180.16;;;14.04;31.41
79481;BME280;68944;48.262;14.208;2023-04-03T11:34:33;99174.91;;;13.43;32.06
79481;BME280;68944;48.262;14.208;2023-04-03T11:37:04;99177.75;;;13.42;32.64
79481;BME280;68944;48.262;14.208;2023-04-03T11:43:59;99174.81;;;12.83;33.84
79481;BME280;68944;48.262;14.208;2023-04-03T11:46:54;99185.78;;;12.55;33.57
79481;BME280;68944;48.262;14.208;2023-04-03T11:49:58;99173.84;;;12.40;32.77
79481;BME280;68944;48.262;14.208;2023-04-03T11:58:12;99179.47;;;12.56;31.81
79481;BME280;68944;48.262;14.208;2023-04-03T12:26:40;99180.53;;;13.29;30.42
79481;BME280;68944;48.262;14.208;2023-04-03T12:29:17;99173.88;;;13.62;30.16
79481;BME280;68944;48.262;14.208;2023-04-03T12:43:43;99170.59;;;13.85;28.84
79481;BME280;68944;48.262;14.208;2023-04-03T12:46:14;99164.97;;;13.93;29.17
79481;BME280;68944;48.262;14.208;2023-04-03T12:51:14;99161.75;;;13.73;29.33
79481;BME280;68944;48.262;14.208;2023-04-03T12:53:43;99160.13;;;13.90;29.09
79481;BME280;68944;48.262;14.208;2023-04-03T12:56:28;99165.28;;;14.32;28.45
79481;BME280;68944;48.262;14.208;2023-04-03T12:59:24;99158.09;;;14.51;28.42
79481;BME280;68944;48.262;14.208;2023-04-03T13:01:55;99156.84;;;13.88;28.37
79481;BME280;68944;48.262;14.208;2023-04-03T13:04:21;99158.13;;;13.67;28.59
79481;BME280;68944;48.262;14.208;2023-04-03T13:06:47;99158.88;;;14.51;28.50
79481;BME280;68944;48.262;14.208;2023-04-03T13:09:31;99157.50;;;15.01;27.24
79481;BME280;68944;48.262;14.208;2023-04-03T13:12:24;99152.44;;;16.64;24.25
79481;BME280;68944;48.262;14.208;2023-04-03T13:14:56;99146.56;;;18.04;23.81
79481;BME280;68944;48.262;14.208;2023-04-03T13:17:22;99142.94;;;18.37;23.01
79481;BME280;68944;48.262;14.208;2023-04-03T13:19:48;99145.66;;;18.42;22.80
79481;BME280;68944;48.262;14.208;2023-04-03T13:25:23;99137.72;;;18.52;23.72
79481;BME280;68944;48.262;14.208;2023-04-03T13:27:50;99130.44;;;18.21;22.50
79481;BME280;68944;48.262;14.208;2023-04-03T13:30:26;99131.25;;;18.74;22.49
79481;BME280;68944;48.262;14.208;2023-04-03T13:32:54;99134.59;;;17.31;23.28
79481;BME280;68944;48.262;14.208;2023-04-03T13:35:28;99141.97;;;17.24;23.70
79481;BME280;68944;48.262;14.208;2023-04-03T13:38:20;99146.31;;;17.13;23.82
79481;BME280;68944;48.262;14.208;2023-04-03T13:40:55;99140.72;;;17.31;23.33
79481;BME280;68944;48.262;14.208;2023-04-03T13:43:25;99134.16;;;18.99;21.24
79481;BME280;68944;48.262;14.208;2023-04-03T13:46:21;99129.50;;;17.67;22.47
79481;BME280;68944;48.262;14.208;2023-04-03T13:48:47;99132.75;;;17.15;23.89
79481;BME280;68944;48.262;14.208;2023-04-03T13:53:46;99128.41;;;17.63;23.57
79481;BME280;68944;48.262;14.208;2023-04-03T14:01:22;99117.66;;;16.71;24.39
79481;BME280;68944;48.262;14.208;2023-04-03T14:03:59;99120.16;;;16.05;24.22
79481;BME280;68944;48.262;14.208;2023-04-03T14:06:26;99124.16;;;16.19;24.87
79481;BME280;68944;48.262;14.208;2023-04-03T14:08:52;99121.91;;;15.99;24.38
79481;BME280;68944;48.262;14.208;2023-04-03T14:11:24;99123.53;;;16.56;24.51
79481;BME280;68944;48.262;14.208;2023-04-03T14:13:52;99120.06;;;16.00;25.46
79481;BME280;68944;48.262;14.208;2023-04-03T14:16:21;99124.38;;;16.17;24.85
79481;BME280;68944;48.262;14.208;2023-04-03T14:18:49;99120.53;;;16.53;24.02
79481;BME280;68944;48.262;14.208;2023-04-03T14:21:17;99118.03;;;16.46;24.65
79481;BME280;68944;48.262;14.208;2023-04-03T14:23:43;99116.09;;;16.30;23.95
79481;BME280;68944;48.262;14.208;2023-04-03T14:26:14;99114.09;;;16.82;24.13
79481;BME280;68944;48.262;14.208;2023-04-03T14:28:42;99119.88;;;16.18;24.68
79481;BME280;68944;48.262;14.208;2023-04-03T14:31:10;99126.63;;;15.69;25.21
79481;BME280;68944;48.262;14.208;2023-04-03T14:33:37;99129.34;;;16.53;24.28
79481;BME280;68944;48.262;14.208;2023-04-03T14:38:37;99119.47;;;15.98;24.41
79481;BME280;68944;48.262;14.208;2023-04-03T14:41:02;99116.03;;;16.70;23.35
79481;BME280;68944;48.262;14.208;2023-04-03T14:43:28;99121.50;;;15.68;23.89
79481;BME280;68944;48.262;14.208;2023-04-03T14:45:53;99124.25;;;15.45;24.75
79481;BME280;68944;48.262;14.208;2023-04-03T14:48:22;99126.75;;;15.17;26.54
79481;BME280;68944;48.262;14.208;2023-04-03T14:50:49;99131.50;;;15.38;25.31
79481;BME280;68944;48.262;14.208;2023-04-03T14:53:16;99138.41;;;15.73;25.33
79481;BME280;68944;48.262;14.208;2023-04-03T14:55:46;99129.66;;;16.57;24.33
79481;BME280;68944;48.262;14.208;2023-04-03T14:58:17;99131.94;;;16.98;23.65
79481;BME280;68944;48.262;14.208;2023-04-03T15:00:43;99129.13;;;16.88;22.86